Aérodrome :
LOGIN :

S'inscrire | Disclaimer

   EN    FR    IT 

 










Légende :    VFR   VFR Marginal   IFR   IFR Intensif   IFR Très Intensif
Visi : 
Plafond : 
>= 8 km
>= 3000ft
5 à 8 km
1000 à 3000 ft
1500m à 5 km
500 à 1000 ft
800 à 1500m
200 à 500 ft
< 800m
< 200 ft
Symboles :   Orages  Brouillard  Fortes neiges  Fortes précipitations  Vent > 20 kt
SIGMETs :   Divers  Orages  Givrage  Turbulence  Onde Orograph.  Cendres Volcan.







- Altitude de l'aérodrome : 90 ft
- Code IATA : NTE
- Voir les cartes d'approche


LFRS - Nantes

DERNIER METAR :
  • 171100Z AUTO 28005KT 240V310 9999 FEW048 OVC086 09/07 Q1029 NOSIG

METARs EXPIRÉS :
  • 171030Z AUTO 29004KT 250V330 9999 FEW049 OVC084 09/07 Q1029 NOSIG
  • 171000Z AUTO 31004KT 270V350 9999 FEW044 BKN072 OVC086 08/06 Q1029 NOSIG
  • 170930Z AUTO 31003KT 9999 FEW033 BKN070 OVC086 08/06 Q1029 NOSIG
  • 170900Z AUTO 32004KT CAVOK 07/06 Q1028 NOSIG
  • 170830Z AUTO 31003KT 280V340 CAVOK 07/06 Q1028 NOSIG

TAF TAF LFRS
Valide du 17 à 06h jusqu'au 18 à 12h UTC


170500Z 1706/1812 30005KT 9999 BKN030
TEMPO 1706/1709 4000 -SHRA
BECMG 1716/1718 22005KT
BECMG 1721/1724 BKN010
TEMPO 1800/1808 3000 -RADZ BKN003
BECMG 1808/1810 35007KT SCT015 BKN030
ATIS : +33 2 40 05 12 74
Pas de NOTAMs connus pour ce terrain.



MET'MAP, la Météo Aéronautique d'un coup d'oeil ! - Copyright ORBIFLY Décembre 2007 - Disclaimer

ORBIFLY MET'MAP TEAM :

Programmation & Développement : Alexandra Zaïnal
Conception & Développement : Baudouin d'Aumeries
Co-Programmation & Développement : Marc-Olivier Méhu
Soutien technique & logistique : Manuel Goepfert

Contact : metmap@orbifly.com




SOURCES & CREDITS :

   NOAA